sensor_id;sensor_type;location;lat;lon;timestamp;temperature;humidity
1766;DHT22;880;52.452;8.656;2022-12-18T00:01:28;-7.80;99.90
1766;DHT22;880;52.452;8.656;2022-12-18T00:03:58;-7.80;99.90
1766;DHT22;880;52.452;8.656;2022-12-18T00:06:27;-7.70;99.90
1766;DHT22;880;52.452;8.656;2022-12-18T00:08:57;-7.70;99.90
1766;DHT22;880;52.452;8.656;2022-12-18T00:11:27;-7.70;99.90
1766;DHT22;880;52.452;8.656;2022-12-18T00:13:56;-7.80;99.90
1766;DHT22;880;52.452;8.656;2022-12-18T00:16:25;-7.80;99.90
1766;DHT22;880;52.452;8.656;2022-12-18T00:18:57;-7.80;99.90
1766;DHT22;880;52.452;8.656;2022-12-18T00:21:26;-7.80;99.90
1766;DHT22;880;52.452;8.656;2022-12-18T00:23:54;-7.80;99.90
1766;DHT22;880;52.452;8.656;2022-12-18T00:26:27;-7.90;99.90
1766;DHT22;880;52.452;8.656;2022-12-18T00:29:02;-7.90;99.90
1766;DHT22;880;52.452;8.656;2022-12-18T00:31:32;-8.00;99.90
1766;DHT22;880;52.452;8.656;2022-12-18T00:34:00;-8.00;99.90
1766;DHT22;880;52.452;8.656;2022-12-18T00:36:30;-8.00;99.90
1766;DHT22;880;52.452;8.656;2022-12-18T00:39:00;-8.00;99.90
1766;DHT22;880;52.452;8.656;2022-12-18T00:41:28;-7.90;99.90
1766;DHT22;880;52.452;8.656;2022-12-18T00:44:16;-7.90;99.90
1766;DHT22;880;52.452;8.656;2022-12-18T00:46:45;-7.90;99.90
1766;DHT22;880;52.452;8.656;2022-12-18T00:49:16;-7.40;99.90
1766;DHT22;880;52.452;8.656;2022-12-18T00:51:45;-5.20;99.90
1766;DHT22;880;52.452;8.656;2022-12-18T00:54:12;-4.40;99.90
1766;DHT22;880;52.452;8.656;2022-12-18T00:56:39;-4.90;99.90
1766;DHT22;880;52.452;8.656;2022-12-18T00:59:16;-5.50;99.90
1766;DHT22;880;52.452;8.656;2022-12-18T01:01:44;-5.90;99.90
1766;DHT22;880;52.452;8.656;2022-12-18T01:04:12;-6.30;99.90
1766;DHT22;880;52.452;8.656;2022-12-18T01:06:39;-6.50;99.90
1766;DHT22;880;52.452;8.656;2022-12-18T01:09:06;-6.70;99.90
1766;DHT22;880;52.452;8.656;2022-12-18T01:11:35;-6.80;99.90
1766;DHT22;880;52.452;8.656;2022-12-18T01:14:03;-6.90;99.90
1766;DHT22;880;52.452;8.656;2022-12-18T01:16:30;-7.00;99.90
1766;DHT22;880;52.452;8.656;2022-12-18T01:18:58;-7.00;99.90
1766;DHT22;880;52.452;8.656;2022-12-18T01:21:26;-7.00;99.90
1766;DHT22;880;52.452;8.656;2022-12-18T01:23:55;-7.00;99.90
1766;DHT22;880;52.452;8.656;2022-12-18T01:26:24;-6.90;99.90
1766;DHT22;880;52.452;8.656;2022-12-18T01:28:53;-7.00;99.90
1766;DHT22;880;52.452;8.656;2022-12-18T01:31:25;-7.00;99.90
1766;DHT22;880;52.452;8.656;2022-12-18T01:34:02;-7.00;99.90
1766;DHT22;880;52.452;8.656;2022-12-18T01:36:32;-7.00;99.90
1766;DHT22;880;52.452;8.656;2022-12-18T01:39:06;-7.10;99.90
1766;DHT22;880;52.452;8.656;2022-12-18T01:41:36;-7.10;99.90
1766;DHT22;880;52.452;8.656;2022-12-18T01:44:55;-7.10;99.90
1766;DHT22;880;52.452;8.656;2022-12-18T01:50:41;-7.20;99.90
1766;DHT22;880;52.452;8.656;2022-12-18T01:53:21;-7.30;99.90
1766;DHT22;880;52.452;8.656;2022-12-18T01:55:53;-7.50;99.90
1766;DHT22;880;52.452;8.656;2022-12-18T02:01:07;-7.50;99.90
1766;DHT22;880;52.452;8.656;2022-12-18T02:03:34;-7.60;99.90
1766;DHT22;880;52.452;8.656;2022-12-18T02:06:20;-7.50;99.90
1766;DHT22;880;52.452;8.656;2022-12-18T02:14:51;-7.30;99.90
1766;DHT22;880;52.452;8.656;2022-12-18T02:17:23;-7.30;99.90
1766;DHT22;880;52.452;8.656;2022-12-18T02:20:13;-7.20;99.90
1766;DHT22;880;52.452;8.656;2022-12-18T02:23:01;-7.20;99.90
1766;DHT22;880;52.452;8.656;2022-12-18T02:26:05;-7.20;99.90
1766;DHT22;880;52.452;8.656;2022-12-18T02:29:10;-7.10;99.90
1766;DHT22;880;52.452;8.656;2022-12-18T02:31:56;-7.10;99.90
1766;DHT22;880;52.452;8.656;2022-12-18T02:34:28;-7.00;99.90
1766;DHT22;880;52.452;8.656;2022-12-18T02:36:59;-7.00;99.90
1766;DHT22;880;52.452;8.656;2022-12-18T02:39:29;-7.00;99.90
1766;DHT22;880;52.452;8.656;2022-12-18T02:42:02;-7.10;99.90
1766;DHT22;880;52.452;8.656;2022-12-18T02:44:45;-7.00;99.90
1766;DHT22;880;52.452;8.656;2022-12-18T02:47:20;-7.10;99.90
1766;DHT22;880;52.452;8.656;2022-12-18T02:59:03;-7.00;99.90
1766;DHT22;880;52.452;8.656;2022-12-18T03:02:21;-6.90;99.90
1766;DHT22;880;52.452;8.656;2022-12-18T03:07:55;-6.80;99.90
1766;DHT22;880;52.452;8.656;2022-12-18T03:10:29;-6.70;99.90
1766;DHT22;880;52.452;8.656;2022-12-18T03:13:09;-6.70;99.90
1766;DHT22;880;52.452;8.656;2022-12-18T03:15:52;-6.70;99.90
1766;DHT22;880;52.452;8.656;2022-12-18T03:18:29;-6.60;99.90
1766;DHT22;880;52.452;8.656;2022-12-18T03:21:01;-6.60;99.90
1766;DHT22;880;52.452;8.656;2022-12-18T03:23:35;-6.60;99.90
1766;DHT22;880;52.452;8.656;2022-12-18T03:26:12;-6.60;99.90
1766;DHT22;880;52.452;8.656;2022-12-18T03:28:46;-6.60;99.90
1766;DHT22;880;52.452;8.656;2022-12-18T03:31:20;-6.60;99.90
1766;DHT22;880;52.452;8.656;2022-12-18T03:33:57;-6.60;99.90
1766;DHT22;880;52.452;8.656;2022-12-18T03:36:34;-6.60;99.90
1766;DHT22;880;52.452;8.656;2022-12-18T03:39:01;-6.60;99.90
1766;DHT22;880;52.452;8.656;2022-12-18T03:41:44;-6.60;99.90
1766;DHT22;880;52.452;8.656;2022-12-18T03:47:39;-6.60;99.90
1766;DHT22;880;52.452;8.656;2022-12-18T03:52:42;-6.60;99.90
1766;DHT22;880;52.452;8.656;2022-12-18T03:55:15;-6.60;99.90
1766;DHT22;880;52.452;8.656;2022-12-18T03:57:47;-6.60;99.90
1766;DHT22;880;52.452;8.656;2022-12-18T04:00:17;-6.60;99.90
1766;DHT22;880;52.452;8.656;2022-12-18T04:03:01;-6.60;99.90
1766;DHT22;880;52.452;8.656;2022-12-18T04:05:35;-6.60;99.90
1766;DHT22;880;52.452;8.656;2022-12-18T04:08:05;-6.60;99.90
1766;DHT22;880;52.452;8.656;2022-12-18T04:10:36;-6.50;99.90
1766;DHT22;880;52.452;8.656;2022-12-18T04:13:03;-6.50;99.90
1766;DHT22;880;52.452;8.656;2022-12-18T04:15:37;-6.50;99.90
1766;DHT22;880;52.452;8.656;2022-12-18T04:18:09;-6.50;99.90
1766;DHT22;880;52.452;8.656;2022-12-18T04:20:40;-6.60;99.90
1766;DHT22;880;52.452;8.656;2022-12-18T04:23:07;-6.60;99.90
1766;DHT22;880;52.452;8.656;2022-12-18T04:25:35;-6.60;99.90
1766;DHT22;880;52.452;8.656;2022-12-18T04:28:09;-6.60;99.90
1766;DHT22;880;52.452;8.656;2022-12-18T04:30:37;-6.60;99.90
1766;DHT22;880;52.452;8.656;2022-12-18T04:33:11;-6.60;99.90
1766;DHT22;880;52.452;8.656;2022-12-18T04:35:40;-6.70;99.90
1766;DHT22;880;52.452;8.656;2022-12-18T04:38:07;-6.70;99.90
1766;DHT22;880;52.452;8.656;2022-12-18T04:40:35;-6.70;99.90
1766;DHT22;880;52.452;8.656;2022-12-18T04:43:07;-6.70;99.90
1766;DHT22;880;52.452;8.656;2022-12-18T04:45:34;-6.70;99.90
1766;DHT22;880;52.452;8.656;2022-12-18T04:48:02;-6.70;99.90
1766;DHT22;880;52.452;8.656;2022-12-18T04:50:30;-6.70;99.90
1766;DHT22;880;52.452;8.656;2022-12-18T04:52:57;-6.70;99.90
1766;DHT22;880;52.452;8.656;2022-12-18T04:55:24;-6.70;99.90
1766;DHT22;880;52.452;8.656;2022-12-18T04:57:52;-6.60;99.90
1766;DHT22;880;52.452;8.656;2022-12-18T05:00:20;-6.60;99.90
1766;DHT22;880;52.452;8.656;2022-12-18T05:02:47;-6.60;99.90
1766;DHT22;880;52.452;8.656;2022-12-18T05:05:14;-6.50;99.90
1766;DHT22;880;52.452;8.656;2022-12-18T05:07:41;-6.50;99.90
1766;DHT22;880;52.452;8.656;2022-12-18T05:10:09;-6.60;99.90
1766;DHT22;880;52.452;8.656;2022-12-18T05:12:36;-6.60;99.90
1766;DHT22;880;52.452;8.656;2022-12-18T05:15:32;-6.60;99.90
1766;DHT22;880;52.452;8.656;2022-12-18T05:18:00;-6.70;99.90
1766;DHT22;880;52.452;8.656;2022-12-18T05:20:28;-6.70;99.90
1766;DHT22;880;52.452;8.656;2022-12-18T05:22:55;-6.70;99.90
1766;DHT22;880;52.452;8.656;2022-12-18T05:25:23;-6.70;99.90
1766;DHT22;880;52.452;8.656;2022-12-18T05:27:50;-6.70;99.90
1766;DHT22;880;52.452;8.656;2022-12-18T05:30:17;-6.70;99.90
1766;DHT22;880;52.452;8.656;2022-12-18T05:32:44;-6.70;99.90
1766;DHT22;880;52.452;8.656;2022-12-18T05:35:12;-6.80;99.90
1766;DHT22;880;52.452;8.656;2022-12-18T05:37:39;-6.80;99.90
1766;DHT22;880;52.452;8.656;2022-12-18T05:40:09;-6.80;99.90
1766;DHT22;880;52.452;8.656;2022-12-18T05:42:37;-6.80;99.90
1766;DHT22;880;52.452;8.656;2022-12-18T05:45:05;-6.80;99.90
1766;DHT22;880;52.452;8.656;2022-12-18T05:47:32;-6.80;99.90
1766;DHT22;880;52.452;8.656;2022-12-18T05:49:59;-6.80;99.90
1766;DHT22;880;52.452;8.656;2022-12-18T05:52:26;-6.80;99.90
1766;DHT22;880;52.452;8.656;2022-12-18T05:54:53;-6.80;99.90
1766;DHT22;880;52.452;8.656;2022-12-18T05:57:20;-6.90;99.90
1766;DHT22;880;52.452;8.656;2022-12-18T05:59:47;-6.90;99.90
1766;DHT22;880;52.452;8.656;2022-12-18T06:02:14;-7.00;99.90
1766;DHT22;880;52.452;8.656;2022-12-18T06:04:41;-7.00;99.90
1766;DHT22;880;52.452;8.656;2022-12-18T06:07:08;-7.00;99.90
1766;DHT22;880;52.452;8.656;2022-12-18T06:09:35;-7.00;99.90
1766;DHT22;880;52.452;8.656;2022-12-18T06:12:02;-7.00;99.90
1766;DHT22;880;52.452;8.656;2022-12-18T06:14:30;-6.90;99.90
1766;DHT22;880;52.452;8.656;2022-12-18T06:16:57;-6.80;99.90
1766;DHT22;880;52.452;8.656;2022-12-18T06:19:24;-6.80;99.90
1766;DHT22;880;52.452;8.656;2022-12-18T06:21:51;-6.70;99.90
1766;DHT22;880;52.452;8.656;2022-12-18T06:24:18;-6.70;99.90
1766;DHT22;880;52.452;8.656;2022-12-18T06:26:45;-6.70;99.90
1766;DHT22;880;52.452;8.656;2022-12-18T06:29:13;-6.70;99.90
1766;DHT22;880;52.452;8.656;2022-12-18T06:31:40;-6.70;99.90
1766;DHT22;880;52.452;8.656;2022-12-18T06:34:07;-6.70;99.90
1766;DHT22;880;52.452;8.656;2022-12-18T06:36:34;-6.70;99.90
1766;DHT22;880;52.452;8.656;2022-12-18T06:39:01;-6.80;99.90
1766;DHT22;880;52.452;8.656;2022-12-18T06:41:28;-6.80;99.90
1766;DHT22;880;52.452;8.656;2022-12-18T06:43:55;-6.80;99.90
1766;DHT22;880;52.452;8.656;2022-12-18T06:46:26;-6.80;99.90
1766;DHT22;880;52.452;8.656;2022-12-18T06:48:53;-6.80;99.90
1766;DHT22;880;52.452;8.656;2022-12-18T06:51:21;-6.70;99.90
1766;DHT22;880;52.452;8.656;2022-12-18T06:53:49;-6.70;99.90
1766;DHT22;880;52.452;8.656;2022-12-18T06:56:16;-6.70;99.90
1766;DHT22;880;52.452;8.656;2022-12-18T06:58:43;-6.70;99.90
1766;DHT22;880;52.452;8.656;2022-12-18T07:01:11;-6.70;99.90
1766;DHT22;880;52.452;8.656;2022-12-18T07:03:40;-6.70;99.90
1766;DHT22;880;52.452;8.656;2022-12-18T07:06:16;-6.70;99.90
1766;DHT22;880;52.452;8.656;2022-12-18T07:08:46;-6.80;99.90
1766;DHT22;880;52.452;8.656;2022-12-18T07:11:14;-6.80;99.90
1766;DHT22;880;52.452;8.656;2022-12-18T07:13:41;-6.90;99.90
1766;DHT22;880;52.452;8.656;2022-12-18T07:16:19;-6.90;99.90
1766;DHT22;880;52.452;8.656;2022-12-18T07:18:52;-6.90;99.90
1766;DHT22;880;52.452;8.656;2022-12-18T07:21:20;-6.90;99.90
1766;DHT22;880;52.452;8.656;2022-12-18T07:23:47;-6.90;99.90
1766;DHT22;880;52.452;8.656;2022-12-18T07:26:16;-6.90;99.90
1766;DHT22;880;52.452;8.656;2022-12-18T07:28:46;-6.90;99.90
1766;DHT22;880;52.452;8.656;2022-12-18T07:31:16;-6.90;99.90
1766;DHT22;880;52.452;8.656;2022-12-18T07:33:47;-6.90;99.90
1766;DHT22;880;52.452;8.656;2022-12-18T07:36:14;-6.90;99.90
1766;DHT22;880;52.452;8.656;2022-12-18T07:38:42;-6.80;99.90
1766;DHT22;880;52.452;8.656;2022-12-18T07:41:12;-6.80;99.90
1766;DHT22;880;52.452;8.656;2022-12-18T07:43:40;-6.60;99.90
1766;DHT22;880;52.452;8.656;2022-12-18T07:46:09;-6.30;99.90
1766;DHT22;880;52.452;8.656;2022-12-18T07:48:40;-6.30;99.90
1766;DHT22;880;52.452;8.656;2022-12-18T07:51:16;-6.40;99.90
1766;DHT22;880;52.452;8.656;2022-12-18T07:53:44;-6.50;99.90
1766;DHT22;880;52.452;8.656;2022-12-18T07:56:12;-6.60;99.90
1766;DHT22;880;52.452;8.656;2022-12-18T07:58:58;-6.70;99.90
1766;DHT22;880;52.452;8.656;2022-12-18T08:01:25;-6.80;99.90
1766;DHT22;880;52.452;8.656;2022-12-18T08:03:53;-6.80;99.90
1766;DHT22;880;52.452;8.656;2022-12-18T08:06:21;-6.80;99.90
1766;DHT22;880;52.452;8.656;2022-12-18T08:08:54;-6.80;99.90
1766;DHT22;880;52.452;8.656;2022-12-18T08:11:23;-6.70;99.90
1766;DHT22;880;52.452;8.656;2022-12-18T08:13:52;-6.60;99.90
1766;DHT22;880;52.452;8.656;2022-12-18T08:16:20;-6.50;99.90
1766;DHT22;880;52.452;8.656;2022-12-18T08:18:48;-6.40;99.90
1766;DHT22;880;52.452;8.656;2022-12-18T08:21:22;-6.30;99.90
1766;DHT22;880;52.452;8.656;2022-12-18T08:23:53;-6.20;99.90
1766;DHT22;880;52.452;8.656;2022-12-18T08:26:21;-6.10;99.90
1766;DHT22;880;52.452;8.656;2022-12-18T08:28:49;-6.10;99.90
1766;DHT22;880;52.452;8.656;2022-12-18T08:31:18;-6.10;99.90
1766;DHT22;880;52.452;8.656;2022-12-18T08:33:51;-6.10;99.90
1766;DHT22;880;52.452;8.656;2022-12-18T08:36:20;-6.10;99.90
1766;DHT22;880;52.452;8.656;2022-12-18T08:38:48;-6.10;99.90
1766;DHT22;880;52.452;8.656;2022-12-18T08:41:17;-6.00;99.90
1766;DHT22;880;52.452;8.656;2022-12-18T08:43:44;-5.90;99.90
1766;DHT22;880;52.452;8.656;2022-12-18T08:46:36;-5.90;99.90
1766;DHT22;880;52.452;8.656;2022-12-18T08:49:06;-5.70;99.90
1766;DHT22;880;52.452;8.656;2022-12-18T08:51:34;-5.70;99.90
1766;DHT22;880;52.452;8.656;2022-12-18T08:54:03;-5.60;99.90
1766;DHT22;880;52.452;8.656;2022-12-18T08:56:32;-5.50;99.90
1766;DHT22;880;52.452;8.656;2022-12-18T08:58:59;-5.40;99.90
1766;DHT22;880;52.452;8.656;2022-12-18T09:01:27;-5.30;99.90
1766;DHT22;880;52.452;8.656;2022-12-18T09:03:54;-5.20;99.90
1766;DHT22;880;52.452;8.656;2022-12-18T09:06:22;-5.00;99.90
1766;DHT22;880;52.452;8.656;2022-12-18T09:08:49;-4.80;99.90
1766;DHT22;880;52.452;8.656;2022-12-18T09:11:23;-4.60;99.90
1766;DHT22;880;52.452;8.656;2022-12-18T09:13:53;-4.40;99.90
1766;DHT22;880;52.452;8.656;2022-12-18T09:16:21;-4.20;99.90
1766;DHT22;880;52.452;8.656;2022-12-18T09:18:57;-4.10;99.90
1766;DHT22;880;52.452;8.656;2022-12-18T09:21:31;-3.90;99.90
1766;DHT22;880;52.452;8.656;2022-12-18T09:24:03;-3.80;99.90
1766;DHT22;880;52.452;8.656;2022-12-18T09:26:34;-3.70;99.90
1766;DHT22;880;52.452;8.656;2022-12-18T09:29:03;-3.60;99.90
1766;DHT22;880;52.452;8.656;2022-12-18T09:31:30;-3.50;99.90
1766;DHT22;880;52.452;8.656;2022-12-18T09:33:56;-3.40;99.90
1766;DHT22;880;52.452;8.656;2022-12-18T09:36:25;-3.30;99.90
1766;DHT22;880;52.452;8.656;2022-12-18T09:38:52;-3.20;99.90
1766;DHT22;880;52.452;8.656;2022-12-18T09:47:11;-3.00;99.90
1766;DHT22;880;52.452;8.656;2022-12-18T09:49:50;-2.90;99.90
1766;DHT22;880;52.452;8.656;2022-12-18T09:52:45;-2.80;99.90
1766;DHT22;880;52.452;8.656;2022-12-18T09:55:40;-2.70;99.90
1766;DHT22;880;52.452;8.656;2022-12-18T10:00:36;-2.40;99.90
1766;DHT22;880;52.452;8.656;2022-12-18T10:03:10;-2.20;99.90
1766;DHT22;880;52.452;8.656;2022-12-18T10:06:02;-2.00;99.90
1766;DHT22;880;52.452;8.656;2022-12-18T10:11:51;-1.60;99.90
1766;DHT22;880;52.452;8.656;2022-12-18T10:17:56;-1.20;99.90
1766;DHT22;880;52.452;8.656;2022-12-18T10:26:05;-0.60;99.90
1766;DHT22;880;52.452;8.656;2022-12-18T10:28:36;-0.40;99.90
1766;DHT22;880;52.452;8.656;2022-12-18T10:31:23;-0.30;99.90
1766;DHT22;880;52.452;8.656;2022-12-18T10:33:53;-0.20;99.90
1766;DHT22;880;52.452;8.656;2022-12-18T10:36:24;-0.10;99.90
1766;DHT22;880;52.452;8.656;2022-12-18T10:38:51;0.00;99.90
1766;DHT22;880;52.452;8.656;2022-12-18T10:43:51;0.20;99.90
1766;DHT22;880;52.452;8.656;2022-12-18T10:46:41;0.30;99.90
1766;DHT22;880;52.452;8.656;2022-12-18T10:49:29;0.30;99.90
1766;DHT22;880;52.452;8.656;2022-12-18T10:52:20;0.40;99.90
1766;DHT22;880;52.452;8.656;2022-12-18T10:55:02;0.40;99.90
1766;DHT22;880;52.452;8.656;2022-12-18T10:57:32;0.40;99.90
1766;DHT22;880;52.452;8.656;2022-12-18T11:02:55;0.40;99.90
1766;DHT22;880;52.452;8.656;2022-12-18T11:05:31;0.40;99.90
1766;DHT22;880;52.452;8.656;2022-12-18T11:08:00;0.30;99.90
1766;DHT22;880;52.452;8.656;2022-12-18T11:10:31;0.20;99.90
1766;DHT22;880;52.452;8.656;2022-12-18T11:13:32;0.30;99.90
1766;DHT22;880;52.452;8.656;2022-12-18T11:15:59;0.40;99.90
1766;DHT22;880;52.452;8.656;2022-12-18T11:18:29;0.50;99.90
1766;DHT22;880;52.452;8.656;2022-12-18T11:21:08;0.40;99.90
1766;DHT22;880;52.452;8.656;2022-12-18T11:23:37;0.40;99.90
1766;DHT22;880;52.452;8.656;2022-12-18T11:26:21;0.30;99.90
1766;DHT22;880;52.452;8.656;2022-12-18T11:29:14;0.30;99.90
1766;DHT22;880;52.452;8.656;2022-12-18T11:31:45;0.30;99.90
1766;DHT22;880;52.452;8.656;2022-12-18T11:34:20;0.30;99.90
1766;DHT22;880;52.452;8.656;2022-12-18T11:36:58;0.30;99.90
1766;DHT22;880;52.452;8.656;2022-12-18T11:39:38;0.30;99.90
1766;DHT22;880;52.452;8.656;2022-12-18T11:42:18;0.20;99.90
1766;DHT22;880;52.452;8.656;2022-12-18T11:44:51;0.20;99.90
1766;DHT22;880;52.452;8.656;2022-12-18T11:47:37;0.20;99.90
1766;DHT22;880;52.452;8.656;2022-12-18T11:50:26;0.20;99.90
1766;DHT22;880;52.452;8.656;2022-12-18T11:52:56;0.20;99.90
1766;DHT22;880;52.452;8.656;2022-12-18T11:58:51;0.20;99.90
1766;DHT22;880;52.452;8.656;2022-12-18T12:01:48;0.10;99.90
1766;DHT22;880;52.452;8.656;2022-12-18T12:04:46;0.00;99.90
1766;DHT22;880;52.452;8.656;2022-12-18T12:07:33;0.00;99.90
1766;DHT22;880;52.452;8.656;2022-12-18T12:10:22;0.00;99.90
1766;DHT22;880;52.452;8.656;2022-12-18T12:13:27;0.00;99.90
1766;DHT22;880;52.452;8.656;2022-12-18T12:16:15;0.00;99.90
1766;DHT22;880;52.452;8.656;2022-12-18T12:19:17;0.00;99.90
1766;DHT22;880;52.452;8.656;2022-12-18T12:24:50;-0.10;99.90
1766;DHT22;880;52.452;8.656;2022-12-18T12:28:13;0.00;99.90
1766;DHT22;880;52.452;8.656;2022-12-18T12:34:16;0.00;99.90
1766;DHT22;880;52.452;8.656;2022-12-18T12:37:14;-0.10;99.90
1766;DHT22;880;52.452;8.656;2022-12-18T12:39:47;0.00;99.90
1766;DHT22;880;52.452;8.656;2022-12-18T12:42:22;0.00;99.90
1766;DHT22;880;52.452;8.656;2022-12-18T12:45:35;0.10;99.90
1766;DHT22;880;52.452;8.656;2022-12-18T12:48:09;0.00;99.90
1766;DHT22;880;52.452;8.656;2022-12-18T12:50:41;0.00;99.90
1766;DHT22;880;52.452;8.656;2022-12-18T12:53:22;0.00;99.90
1766;DHT22;880;52.452;8.656;2022-12-18T12:55:54;-0.10;99.90
1766;DHT22;880;52.452;8.656;2022-12-18T13:01:49;-0.10;99.90
1766;DHT22;880;52.452;8.656;2022-12-18T13:04:56;-0.10;99.90
1766;DHT22;880;52.452;8.656;2022-12-18T13:07:32;0.00;99.90
1766;DHT22;880;52.452;8.656;2022-12-18T13:13:07;0.00;99.90
1766;DHT22;880;52.452;8.656;2022-12-18T13:16:06;0.00;99.90
1766;DHT22;880;52.452;8.656;2022-12-18T13:18:34;0.00;99.90
1766;DHT22;880;52.452;8.656;2022-12-18T13:21:16;-0.10;99.90
1766;DHT22;880;52.452;8.656;2022-12-18T13:23:55;-0.10;99.90
1766;DHT22;880;52.452;8.656;2022-12-18T13:28:56;-0.20;99.90
1766;DHT22;880;52.452;8.656;2022-12-18T13:34:25;-0.20;99.90
1766;DHT22;880;52.452;8.656;2022-12-18T13:36:56;-0.20;99.90
1766;DHT22;880;52.452;8.656;2022-12-18T13:39:33;-0.20;99.90
1766;DHT22;880;52.452;8.656;2022-12-18T13:50:20;-0.30;99.90
1766;DHT22;880;52.452;8.656;2022-12-18T13:53:03;-0.20;99.90
1766;DHT22;880;52.452;8.656;2022-12-18T13:55:32;-0.20;99.90
1766;DHT22;880;52.452;8.656;2022-12-18T13:58:06;-0.30;99.90
1766;DHT22;880;52.452;8.656;2022-12-18T14:00:33;-0.20;99.90
1766;DHT22;880;52.452;8.656;2022-12-18T14:03:00;-0.30;99.90
1766;DHT22;880;52.452;8.656;2022-12-18T14:08:01;-0.30;99.90
1766;DHT22;880;52.452;8.656;2022-12-18T14:10:32;-0.40;99.90
1766;DHT22;880;52.452;8.656;2022-12-18T14:13:37;-0.40;99.90
1766;DHT22;880;52.452;8.656;2022-12-18T14:16:13;-0.40;99.90
1766;DHT22;880;52.452;8.656;2022-12-18T14:18:55;-0.40;99.90
1766;DHT22;880;52.452;8.656;2022-12-18T14:21:48;-0.40;99.90
1766;DHT22;880;52.452;8.656;2022-12-18T14:24:21;-0.40;99.90
1766;DHT22;880;52.452;8.656;2022-12-18T14:26:49;-0.40;99.90
1766;DHT22;880;52.452;8.656;2022-12-18T14:32:14;-0.40;99.90
1766;DHT22;880;52.452;8.656;2022-12-18T14:34:52;-0.40;99.90
1766;DHT22;880;52.452;8.656;2022-12-18T14:37:24;-0.50;99.90
1766;DHT22;880;52.452;8.656;2022-12-18T14:40:02;-0.50;99.90
1766;DHT22;880;52.452;8.656;2022-12-18T14:42:37;-0.50;99.90
1766;DHT22;880;52.452;8.656;2022-12-18T14:51:06;-0.50;99.90
1766;DHT22;880;52.452;8.656;2022-12-18T14:53:44;-0.50;99.90
1766;DHT22;880;52.452;8.656;2022-12-18T14:56:22;-0.60;99.90
1766;DHT22;880;52.452;8.656;2022-12-18T14:59:12;-0.60;99.90
1766;DHT22;880;52.452;8.656;2022-12-18T15:05:04;-0.70;99.90
1766;DHT22;880;52.452;8.656;2022-12-18T15:07:46;-0.70;99.90
1766;DHT22;880;52.452;8.656;2022-12-18T15:20:52;-0.70;99.90
1766;DHT22;880;52.452;8.656;2022-12-18T15:23:22;-0.70;99.90
1766;DHT22;880;52.452;8.656;2022-12-18T15:26:11;-0.80;99.90
1766;DHT22;880;52.452;8.656;2022-12-18T15:31:32;-0.80;99.90
1766;DHT22;880;52.452;8.656;2022-12-18T15:34:11;-0.80;99.90
1766;DHT22;880;52.452;8.656;2022-12-18T15:36:47;-0.80;99.90
1766;DHT22;880;52.452;8.656;2022-12-18T15:39:14;-0.80;99.90
1766;DHT22;880;52.452;8.656;2022-12-18T15:41:41;-0.80;99.90
1766;DHT22;880;52.452;8.656;2022-12-18T15:44:28;-0.80;99.90
1766;DHT22;880;52.452;8.656;2022-12-18T15:46:55;-0.90;99.90
1766;DHT22;880;52.452;8.656;2022-12-18T15:49:22;-0.80;99.90
1766;DHT22;880;52.452;8.656;2022-12-18T15:51:52;-0.80;99.90
1766;DHT22;880;52.452;8.656;2022-12-18T15:54:20;-0.70;99.90
1766;DHT22;880;52.452;8.656;2022-12-18T15:57:09;-0.70;99.90
1766;DHT22;880;52.452;8.656;2022-12-18T15:59:54;-0.70;99.90
1766;DHT22;880;52.452;8.656;2022-12-18T16:02:24;-0.60;99.90
1766;DHT22;880;52.452;8.656;2022-12-18T16:04:52;-0.60;99.90
1766;DHT22;880;52.452;8.656;2022-12-18T16:07:20;-0.60;99.90
1766;DHT22;880;52.452;8.656;2022-12-18T16:09:51;-0.60;99.90
1766;DHT22;880;52.452;8.656;2022-12-18T16:12:21;-0.50;99.90
1766;DHT22;880;52.452;8.656;2022-12-18T16:14:49;-0.50;99.90
1766;DHT22;880;52.452;8.656;2022-12-18T16:17:16;-0.50;99.90
1766;DHT22;880;52.452;8.656;2022-12-18T16:19:44;-0.40;99.90
1766;DHT22;880;52.452;8.656;2022-12-18T16:22:25;-0.40;99.90
1766;DHT22;880;52.452;8.656;2022-12-18T16:24:55;-0.40;99.90
1766;DHT22;880;52.452;8.656;2022-12-18T16:27:24;-0.40;99.90
1766;DHT22;880;52.452;8.656;2022-12-18T16:29:52;-0.30;99.90
1766;DHT22;880;52.452;8.656;2022-12-18T16:32:20;-0.30;99.90
1766;DHT22;880;52.452;8.656;2022-12-18T16:34:49;-0.20;99.90
1766;DHT22;880;52.452;8.656;2022-12-18T16:37:17;-0.20;99.90
1766;DHT22;880;52.452;8.656;2022-12-18T16:39:45;-0.30;99.90
1766;DHT22;880;52.452;8.656;2022-12-18T16:42:17;-0.20;99.90
1766;DHT22;880;52.452;8.656;2022-12-18T16:44:47;-0.20;99.90
1766;DHT22;880;52.452;8.656;2022-12-18T16:47:15;-0.20;99.90
1766;DHT22;880;52.452;8.656;2022-12-18T16:49:43;-0.20;99.90
1766;DHT22;880;52.452;8.656;2022-12-18T16:52:12;-0.20;99.90
1766;DHT22;880;52.452;8.656;2022-12-18T16:54:39;-0.20;99.90
1766;DHT22;880;52.452;8.656;2022-12-18T16:57:06;-0.20;99.90
1766;DHT22;880;52.452;8.656;2022-12-18T16:59:33;-0.20;99.90
1766;DHT22;880;52.452;8.656;2022-12-18T17:02:00;-0.20;99.90
1766;DHT22;880;52.452;8.656;2022-12-18T17:04:27;-0.20;99.90
1766;DHT22;880;52.452;8.656;2022-12-18T17:06:54;-0.10;99.90
1766;DHT22;880;52.452;8.656;2022-12-18T17:09:21;-0.10;99.90
1766;DHT22;880;52.452;8.656;2022-12-18T17:11:52;-0.10;99.90
1766;DHT22;880;52.452;8.656;2022-12-18T17:14:22;-0.10;99.90
1766;DHT22;880;52.452;8.656;2022-12-18T17:16:51;-0.10;99.90
1766;DHT22;880;52.452;8.656;2022-12-18T17:19:39;-0.20;99.90
1766;DHT22;880;52.452;8.656;2022-12-18T17:22:06;-0.10;99.90
1766;DHT22;880;52.452;8.656;2022-12-18T17:24:34;-0.10;99.90
1766;DHT22;880;52.452;8.656;2022-12-18T17:27:02;-0.20;99.90
1766;DHT22;880;52.452;8.656;2022-12-18T17:29:30;-0.10;99.90
1766;DHT22;880;52.452;8.656;2022-12-18T17:31:57;0.50;99.90
1766;DHT22;880;52.452;8.656;2022-12-18T17:34:26;1.20;99.90
1766;DHT22;880;52.452;8.656;2022-12-18T17:36:55;1.10;99.90
1766;DHT22;880;52.452;8.656;2022-12-18T17:39:22;0.90;99.90
1766;DHT22;880;52.452;8.656;2022-12-18T17:41:49;0.70;99.90
1766;DHT22;880;52.452;8.656;2022-12-18T17:44:17;0.50;99.90
1766;DHT22;880;52.452;8.656;2022-12-18T17:46:44;0.40;99.90
1766;DHT22;880;52.452;8.656;2022-12-18T17:49:14;0.30;99.90
1766;DHT22;880;52.452;8.656;2022-12-18T17:51:41;0.20;99.90
1766;DHT22;880;52.452;8.656;2022-12-18T17:54:09;0.20;99.90
1766;DHT22;880;52.452;8.656;2022-12-18T17:56:37;0.20;99.90
1766;DHT22;880;52.452;8.656;2022-12-18T17:59:05;0.10;99.90
1766;DHT22;880;52.452;8.656;2022-12-18T18:01:33;0.20;99.90
1766;DHT22;880;52.452;8.656;2022-12-18T18:04:06;0.10;99.90
1766;DHT22;880;52.452;8.656;2022-12-18T18:06:33;0.10;99.90
1766;DHT22;880;52.452;8.656;2022-12-18T18:09:05;0.10;99.90
1766;DHT22;880;52.452;8.656;2022-12-18T18:11:41;0.10;99.90
1766;DHT22;880;52.452;8.656;2022-12-18T18:14:27;0.10;99.90
1766;DHT22;880;52.452;8.656;2022-12-18T18:16:55;0.10;99.90
1766;DHT22;880;52.452;8.656;2022-12-18T18:19:27;0.10;99.90
1766;DHT22;880;52.452;8.656;2022-12-18T18:21:55;0.20;99.90
1766;DHT22;880;52.452;8.656;2022-12-18T18:24:22;0.30;99.90
1766;DHT22;880;52.452;8.656;2022-12-18T18:26:49;0.30;99.90
1766;DHT22;880;52.452;8.656;2022-12-18T18:29:19;0.30;99.90
1766;DHT22;880;52.452;8.656;2022-12-18T18:31:47;0.50;99.90
1766;DHT22;880;52.452;8.656;2022-12-18T18:34:19;0.50;99.90
1766;DHT22;880;52.452;8.656;2022-12-18T18:36:47;0.60;99.90
1766;DHT22;880;52.452;8.656;2022-12-18T18:39:14;0.60;99.90
1766;DHT22;880;52.452;8.656;2022-12-18T18:41:41;0.70;99.90
1766;DHT22;880;52.452;8.656;2022-12-18T18:44:14;0.70;99.90
1766;DHT22;880;52.452;8.656;2022-12-18T18:46:43;0.80;99.90
1766;DHT22;880;52.452;8.656;2022-12-18T18:49:10;0.80;99.90
1766;DHT22;880;52.452;8.656;2022-12-18T18:51:40;0.80;99.90
1766;DHT22;880;52.452;8.656;2022-12-18T18:54:08;0.80;99.90